createdAt,value
2019-06-29T00:00:38.262Z,1017.66
2019-06-29T00:01:38.279Z,1017.65
2019-06-29T00:02:38.304Z,1017.65
2019-06-29T00:03:38.331Z,1017.60
2019-06-29T00:04:38.353Z,1017.59
2019-06-29T00:05:38.377Z,1017.61
2019-06-29T00:06:38.388Z,1017.61
2019-06-29T00:07:38.413Z,1017.55
2019-06-29T00:08:38.440Z,1017.57
2019-06-29T00:09:38.455Z,1017.61
2019-06-29T00:10:38.476Z,1017.59
2019-06-29T00:11:38.496Z,1017.58
2019-06-29T00:12:38.664Z,1017.59
2019-06-29T00:13:38.549Z,1017.58
2019-06-29T00:14:38.563Z,1017.56
2019-06-29T00:15:38.592Z,1017.54
2019-06-29T00:16:38.605Z,1017.53
2019-06-29T00:17:38.637Z,1017.51
2019-06-29T00:18:38.649Z,1017.52
2019-06-29T00:19:38.677Z,1017.50
2019-06-29T00:20:38.701Z,1017.51
2019-06-29T00:21:38.720Z,1017.46
2019-06-29T00:22:38.742Z,1017.49
2019-06-29T00:23:38.757Z,1017.50
2019-06-29T00:24:38.779Z,1017.47
2019-06-29T00:25:38.801Z,1017.46
2019-06-29T00:26:38.823Z,1017.41
2019-06-29T00:27:38.853Z,1017.46
2019-06-29T00:28:38.869Z,1017.40
2019-06-29T00:29:38.895Z,1017.40
2019-06-29T00:30:38.911Z,1017.41
2019-06-29T00:31:38.935Z,1017.42
2019-06-29T00:32:38.955Z,1017.43
2019-06-29T00:33:38.976Z,1017.40
2019-06-29T00:34:39.006Z,1017.41
2019-06-29T00:35:39.020Z,1017.44
2019-06-29T00:36:39.040Z,1017.41
2019-06-29T00:37:39.060Z,1017.46
2019-06-29T00:38:39.082Z,1017.45
2019-06-29T00:39:39.103Z,1017.42
2019-06-29T00:40:39.133Z,1017.40
2019-06-29T00:41:39.153Z,1017.38
2019-06-29T00:42:39.169Z,1017.39
2019-06-29T00:43:39.191Z,1017.41
2019-06-29T00:44:39.213Z,1017.39
2019-06-29T00:45:39.232Z,1017.44
2019-06-29T00:46:39.262Z,1017.46
2019-06-29T00:47:39.275Z,1017.41
2019-06-29T00:48:39.297Z,1017.43
2019-06-29T00:49:39.318Z,1017.44
2019-06-29T00:50:39.341Z,1017.43
2019-06-29T00:51:39.371Z,1017.41
2019-06-29T00:52:39.390Z,1017.42
2019-06-29T00:53:39.406Z,1017.40
2019-06-29T00:54:39.433Z,1017.41
2019-06-29T00:55:39.448Z,1017.41
2019-06-29T00:56:39.479Z,1017.38
2019-06-29T00:57:39.526Z,1017.38
2019-06-29T00:58:39.512Z,1017.37
2019-06-29T00:59:39.533Z,1017.40
2019-06-29T01:00:39.555Z,1017.41
2019-06-29T01:01:39.585Z,1017.38
2019-06-29T01:02:39.608Z,1017.42
2019-06-29T01:03:40.080Z,1017.36
2019-06-29T01:04:39.642Z,1017.33
2019-06-29T01:05:39.665Z,1017.31
2019-06-29T01:06:40.034Z,1017.27
2019-06-29T01:07:39.707Z,1017.31
2019-06-29T01:08:39.726Z,1017.29
2019-06-29T01:09:40.052Z,1017.28
2019-06-29T01:10:39.769Z,1017.27
2019-06-29T01:11:39.799Z,1017.28
2019-06-29T01:12:39.816Z,1017.30
2019-06-29T01:13:48.091Z,1017.27
2019-06-29T01:14:39.858Z,1017.24
2019-06-29T01:15:39.881Z,1017.25
2019-06-29T01:16:39.907Z,1017.22
2019-06-29T01:17:39.919Z,1017.27
2019-06-29T01:18:39.944Z,1017.20
2019-06-29T01:19:39.965Z,1017.19
2019-06-29T01:20:39.985Z,1017.20
2019-06-29T01:21:40.007Z,1017.21
2019-06-29T01:22:40.028Z,1017.20
2019-06-29T01:23:40.069Z,1017.16
2019-06-29T01:24:43.495Z,1017.15
2019-06-29T01:25:40.092Z,1017.16
2019-06-29T01:26:40.112Z,1017.08
2019-06-29T01:27:40.145Z,1017.06
2019-06-29T01:28:40.163Z,1017.10
2019-06-29T01:29:40.335Z,1017.09
2019-06-29T01:30:40.197Z,1017.05
2019-06-29T01:31:40.226Z,1017.05
2019-06-29T01:32:40.242Z,1017.02
2019-06-29T01:33:40.264Z,1017.00
2019-06-29T01:34:40.284Z,1017.00
2019-06-29T01:35:40.309Z,1016.96
2019-06-29T01:36:40.324Z,1016.99
2019-06-29T01:37:40.345Z,1016.97
2019-06-29T01:38:40.372Z,1016.98
2019-06-29T01:39:40.392Z,1017.01
2019-06-29T01:40:40.409Z,1016.98
2019-06-29T01:41:40.432Z,1016.99
2019-06-29T01:42:40.461Z,1016.97
2019-06-29T01:43:40.479Z,1016.96
2019-06-29T01:44:40.496Z,1016.93
2019-06-29T01:45:40.522Z,1016.94
2019-06-29T01:46:40.539Z,1016.93
2019-06-29T01:47:40.566Z,1016.92
2019-06-29T01:48:40.583Z,1016.89
2019-06-29T01:49:40.604Z,1016.86
2019-06-29T01:50:40.622Z,1016.85
2019-06-29T01:51:40.652Z,1016.88
2019-06-29T01:52:40.666Z,1016.83
2019-06-29T01:53:40.692Z,1016.81
2019-06-29T01:54:40.707Z,1016.82
2019-06-29T01:55:40.734Z,1016.86
2019-06-29T01:56:41.174Z,1016.83
2019-06-29T01:57:40.770Z,1016.83
2019-06-29T01:58:40.810Z,1016.81
2019-06-29T01:59:40.817Z,1016.81
2019-06-29T02:00:40.844Z,1016.79
2019-06-29T02:01:40.855Z,1016.81
2019-06-29T02:02:40.886Z,1016.80
2019-06-29T02:03:40.906Z,1016.85
2019-06-29T02:04:40.918Z,1016.78
2019-06-29T02:05:40.944Z,1016.80
2019-06-29T02:06:40.963Z,1016.77
2019-06-29T02:07:40.983Z,1016.76
2019-06-29T02:08:41.007Z,1016.72
2019-06-29T02:09:41.029Z,1016.70
2019-06-29T02:10:41.065Z,1016.73
2019-06-29T02:11:41.072Z,1016.70
2019-06-29T02:12:41.089Z,1016.70
2019-06-29T02:13:41.144Z,1016.75
2019-06-29T02:14:41.137Z,1016.72
2019-06-29T02:15:41.153Z,1016.73
2019-06-29T02:16:41.174Z,1016.77
2019-06-29T02:17:41.193Z,1016.73
2019-06-29T02:18:41.220Z,1016.74
2019-06-29T02:19:41.241Z,1016.75
2019-06-29T02:20:41.259Z,1016.71
2019-06-29T02:21:41.429Z,1016.67
2019-06-29T02:22:41.299Z,1016.67
2019-06-29T02:23:41.319Z,1016.65
2019-06-29T02:24:41.365Z,1016.64
2019-06-29T02:25:41.362Z,1016.66
2019-06-29T02:26:41.384Z,1016.67
2019-06-29T02:27:41.404Z,1016.69
2019-06-29T02:28:41.424Z,1016.65
2019-06-29T02:29:41.451Z,1016.66
2019-06-29T02:30:41.476Z,1016.66
2019-06-29T02:31:41.491Z,1016.67
2019-06-29T02:32:41.517Z,1016.71
2019-06-29T02:33:41.532Z,1016.67
2019-06-29T02:34:41.550Z,1016.69
2019-06-29T02:35:41.584Z,1016.69
2019-06-29T02:36:41.595Z,1016.64
2019-06-29T02:37:41.615Z,1016.63
2019-06-29T02:38:41.643Z,1016.63
2019-06-29T02:39:41.658Z,1016.61
2019-06-29T02:40:41.679Z,1016.62
2019-06-29T02:41:41.697Z,1016.57
2019-06-29T02:42:41.721Z,1016.60
2019-06-29T02:43:41.738Z,1016.57
2019-06-29T02:44:41.766Z,1016.49
2019-06-29T02:45:41.780Z,1016.56
2019-06-29T02:46:41.808Z,1016.51
2019-06-29T02:47:41.825Z,1016.48
2019-06-29T02:48:41.842Z,1016.55
2019-06-29T02:49:41.934Z,1016.55
2019-06-29T02:50:41.886Z,1016.55
2019-06-29T02:51:41.913Z,1016.51
2019-06-29T02:52:41.932Z,1016.48
2019-06-29T02:53:41.947Z,1016.49
2019-06-29T02:54:41.981Z,1016.49
2019-06-29T02:55:42.009Z,1016.53
2019-06-29T02:56:42.008Z,1016.51
2019-06-29T02:57:42.046Z,1016.51
2019-06-29T02:58:42.051Z,1016.56
2019-06-29T02:59:42.072Z,1016.53
2019-06-29T03:00:42.094Z,1016.49
2019-06-29T03:01:42.121Z,1016.52
2019-06-29T03:02:42.144Z,1016.50
2019-06-29T03:03:42.160Z,1016.48
2019-06-29T03:04:42.182Z,1016.49
2019-06-29T03:05:42.195Z,1016.46
2019-06-29T03:06:42.227Z,1016.46
2019-06-29T03:07:42.237Z,1016.49
2019-06-29T03:08:42.257Z,1016.49
2019-06-29T03:09:42.282Z,1016.48
2019-06-29T03:10:42.307Z,1016.45
2019-06-29T03:11:42.332Z,1016.47
2019-06-29T03:12:42.346Z,1016.43
2019-06-29T03:13:42.361Z,1016.45
2019-06-29T03:14:42.385Z,1016.46
2019-06-29T03:15:42.408Z,1016.48
2019-06-29T03:16:42.432Z,1016.48
2019-06-29T03:17:42.450Z,1016.44
2019-06-29T03:18:42.474Z,1016.44
2019-06-29T03:19:42.488Z,1016.48
2019-06-29T03:20:42.510Z,1016.43
2019-06-29T03:21:42.535Z,1016.48
2019-06-29T03:22:42.549Z,1016.45
2019-06-29T03:23:42.571Z,1016.40
2019-06-29T03:24:42.590Z,1016.41
2019-06-29T03:25:54.183Z,1016.46
2019-06-29T03:26:42.631Z,1016.43
2019-06-29T03:27:42.659Z,1016.45
2019-06-29T03:28:42.671Z,1016.40
2019-06-29T03:29:42.696Z,1016.42
2019-06-29T03:30:42.713Z,1016.41
2019-06-29T03:31:42.734Z,1016.40
2019-06-29T03:32:42.784Z,1016.39
2019-06-29T03:33:42.779Z,1016.32
2019-06-29T03:34:42.797Z,1016.37
2019-06-29T03:35:42.816Z,1016.31
2019-06-29T03:36:42.837Z,1016.29
2019-06-29T03:37:42.857Z,1016.32
2019-06-29T03:38:42.930Z,1016.32
2019-06-29T03:39:42.907Z,1016.33
2019-06-29T03:40:42.927Z,1016.35
2019-06-29T03:41:42.940Z,1016.34
2019-06-29T03:42:42.969Z,1016.34
2019-06-29T03:43:42.987Z,1016.35
2019-06-29T03:44:43.004Z,1016.30
2019-06-29T03:45:43.032Z,1016.31
2019-06-29T03:46:43.045Z,1016.33
2019-06-29T03:47:43.069Z,1016.30
2019-06-29T03:48:43.086Z,1016.30
2019-06-29T03:49:43.105Z,1016.27
2019-06-29T03:50:43.129Z,1016.31
2019-06-29T03:51:43.147Z,1016.32
2019-06-29T03:52:43.169Z,1016.31
2019-06-29T03:53:43.190Z,1016.32
2019-06-29T03:54:43.214Z,1016.32
2019-06-29T03:55:43.234Z,1016.35
2019-06-29T03:56:43.249Z,1016.34
2019-06-29T03:57:43.272Z,1016.34
2019-06-29T03:58:43.292Z,1016.33
2019-06-29T03:59:43.311Z,1016.32
2019-06-29T04:00:43.340Z,1016.33
2019-06-29T04:01:43.371Z,1016.33
2019-06-29T04:02:43.375Z,1016.30
2019-06-29T04:03:43.397Z,1016.32
2019-06-29T04:04:43.420Z,1016.27
2019-06-29T04:05:43.444Z,1016.27
2019-06-29T04:06:43.473Z,1016.28
2019-06-29T04:07:43.476Z,1016.28
2019-06-29T04:08:43.505Z,1016.25
2019-06-29T04:09:43.525Z,1016.25
2019-06-29T04:10:43.538Z,1016.28
2019-06-29T04:11:43.559Z,1016.29
2019-06-29T04:12:43.579Z,1016.28
2019-06-29T04:13:43.608Z,1016.29
2019-06-29T04:14:43.656Z,1016.26
2019-06-29T04:15:43.641Z,1016.26
2019-06-29T04:16:43.670Z,1016.26
2019-06-29T04:17:43.699Z,1016.25
2019-06-29T04:18:43.703Z,1016.25
2019-06-29T04:19:43.820Z,1016.25
2019-06-29T04:20:43.751Z,1016.26
2019-06-29T04:21:43.767Z,1016.29
2019-06-29T04:22:43.790Z,1016.29
2019-06-29T04:23:43.808Z,1016.29
2019-06-29T04:24:43.827Z,1016.29
2019-06-29T04:25:43.851Z,1016.28
2019-06-29T04:26:43.869Z,1016.25
2019-06-29T04:27:43.891Z,1016.25
2019-06-29T04:28:43.914Z,1016.25
2019-06-29T04:29:43.932Z,1016.21
2019-06-29T04:30:43.958Z,1016.16
2019-06-29T04:31:43.982Z,1016.14
2019-06-29T04:32:43.995Z,1016.17
2019-06-29T04:33:44.016Z,1016.15
2019-06-29T04:34:44.045Z,1016.13
2019-06-29T04:35:44.064Z,1016.16
2019-06-29T04:36:44.076Z,1016.10
2019-06-29T04:37:44.103Z,1016.10
2019-06-29T04:38:44.126Z,1016.15
2019-06-29T04:39:44.138Z,1016.16
2019-06-29T04:40:44.158Z,1016.14
2019-06-29T04:41:44.186Z,1016.12
2019-06-29T04:42:44.210Z,1016.15
2019-06-29T04:43:44.223Z,1016.14
2019-06-29T04:44:44.246Z,1016.18
2019-06-29T04:45:44.265Z,1016.17
2019-06-29T04:46:44.486Z,1016.17
2019-06-29T04:47:44.309Z,1016.17
2019-06-29T04:48:44.327Z,1016.17
2019-06-29T04:49:44.348Z,1016.15
2019-06-29T04:50:44.370Z,1016.17
2019-06-29T04:51:44.398Z,1016.17
2019-06-29T04:52:44.412Z,1016.15
2019-06-29T04:53:44.430Z,1016.20
2019-06-29T04:54:44.456Z,1016.18
2019-06-29T04:55:44.492Z,1016.13
2019-06-29T04:56:44.645Z,1016.16
2019-06-29T04:57:44.518Z,1016.16
2019-06-29T04:58:44.545Z,1016.20
2019-06-29T04:59:44.558Z,1016.16
2019-06-29T05:00:44.586Z,1016.18
2019-06-29T05:01:44.601Z,1016.18
2019-06-29T05:02:44.626Z,1016.16
2019-06-29T05:03:44.647Z,1016.18
2019-06-29T05:04:44.670Z,1016.15
2019-06-29T05:05:44.686Z,1016.15
2019-06-29T05:06:44.707Z,1016.13
2019-06-29T05:07:44.727Z,1016.15
2019-06-29T05:08:44.750Z,1016.11
2019-06-29T05:09:44.777Z,1016.15
2019-06-29T05:10:44.792Z,1016.14
2019-06-29T05:11:44.819Z,1016.16
2019-06-29T05:12:44.838Z,1016.13
2019-06-29T05:13:44.859Z,1016.13
2019-06-29T05:14:44.875Z,1016.13
2019-06-29T05:15:44.895Z,1016.12
2019-06-29T05:16:44.925Z,1016.15
2019-06-29T05:17:44.946Z,1016.13
2019-06-29T05:18:44.961Z,1016.15
2019-06-29T05:19:44.982Z,1016.13
2019-06-29T05:20:45.002Z,1016.15
2019-06-29T05:21:45.023Z,1016.13
2019-06-29T05:22:45.045Z,1016.11
2019-06-29T05:23:45.074Z,1016.12
2019-06-29T05:24:45.092Z,1016.12
2019-06-29T05:25:45.111Z,1016.11
2019-06-29T05:26:59.607Z,1016.11
2019-06-29T05:27:45.156Z,1016.10
2019-06-29T05:28:45.175Z,1016.10
2019-06-29T05:29:45.195Z,1016.11
2019-06-29T05:30:45.226Z,1016.11
2019-06-29T05:31:45.241Z,1016.18
2019-06-29T05:32:45.262Z,1016.16
2019-06-29T05:33:45.359Z,1016.18
2019-06-29T05:34:45.318Z,1016.15
2019-06-29T05:35:45.327Z,1016.17
2019-06-29T05:36:45.355Z,1016.13
2019-06-29T05:37:45.376Z,1016.11
2019-06-29T05:38:45.398Z,1016.11
2019-06-29T05:39:45.413Z,1016.10
2019-06-29T05:40:45.432Z,1016.06
2019-06-29T05:41:45.608Z,1016.05
2019-06-29T05:42:45.478Z,1016.03
2019-06-29T05:43:45.497Z,1016.09
2019-06-29T05:44:45.519Z,1016.03
2019-06-29T05:45:45.545Z,1016.06
2019-06-29T05:46:45.564Z,1016.04
2019-06-29T05:47:45.585Z,1016.04
2019-06-29T05:48:45.615Z,1016.05
2019-06-29T05:49:45.636Z,1016.05
2019-06-29T05:50:45.651Z,1016.06
2019-06-29T05:51:45.675Z,1016.06
2019-06-29T05:52:45.698Z,1016.05
2019-06-29T05:53:45.725Z,1016.07
2019-06-29T05:54:45.744Z,1016.06
2019-06-29T05:55:45.767Z,1016.07
2019-06-29T05:56:45.790Z,1016.07
2019-06-29T05:57:45.812Z,1016.05
2019-06-29T05:58:45.835Z,1016.08
2019-06-29T05:59:45.854Z,1016.05
2019-06-29T06:00:45.885Z,1016.02
2019-06-29T06:01:45.901Z,1015.99
2019-06-29T06:02:45.924Z,1016.01
2019-06-29T06:03:45.948Z,1015.98
2019-06-29T06:04:45.976Z,1015.96
2019-06-29T06:05:45.997Z,1015.95
2019-06-29T06:06:46.027Z,1015.97
2019-06-29T06:07:46.042Z,1015.94
2019-06-29T06:08:46.069Z,1015.98
2019-06-29T06:09:46.096Z,1015.97
2019-06-29T06:10:46.112Z,1015.93
2019-06-29T06:11:46.135Z,1015.90
2019-06-29T06:12:46.194Z,1015.94
2019-06-29T06:13:46.188Z,1015.91
2019-06-29T06:14:46.210Z,1015.91
2019-06-29T06:15:46.234Z,1015.90
2019-06-29T06:16:46.714Z,1015.90
2019-06-29T06:17:46.280Z,1015.85
2019-06-29T06:18:46.305Z,1015.88
2019-06-29T06:19:46.330Z,1015.88
2019-06-29T06:20:46.360Z,1015.86
2019-06-29T06:21:46.389Z,1015.85
2019-06-29T06:22:46.403Z,1015.87
2019-06-29T06:23:46.427Z,1015.89
2019-06-29T06:24:46.451Z,1015.86
2019-06-29T06:25:47.991Z,1015.88
2019-06-29T06:26:46.502Z,1015.86
2019-06-29T06:27:46.530Z,1015.89
2019-06-29T06:28:46.560Z,1015.90
2019-06-29T06:29:46.580Z,1015.91
2019-06-29T06:30:46.604Z,1015.86
2019-06-29T06:31:46.632Z,1015.85
2019-06-29T06:32:46.652Z,1015.85
2019-06-29T06:33:46.683Z,1015.85
2019-06-29T06:34:46.703Z,1015.89
2019-06-29T06:35:46.728Z,1015.92
2019-06-29T06:36:46.760Z,1015.90
2019-06-29T06:37:46.786Z,1015.90
2019-06-29T06:38:46.809Z,1015.96
2019-06-29T06:39:46.833Z,1015.91
2019-06-29T06:40:46.859Z,1015.92
2019-06-29T06:41:46.884Z,1015.91
2019-06-29T06:42:46.908Z,1015.93
2019-06-29T06:43:46.946Z,1015.91
2019-06-29T06:44:46.959Z,1015.94
2019-06-29T06:45:46.989Z,1015.94
2019-06-29T06:46:47.020Z,1015.95
2019-06-29T06:47:47.046Z,1015.94
2019-06-29T06:48:47.067Z,1015.92
2019-06-29T06:49:47.097Z,1015.93
2019-06-29T06:50:47.123Z,1015.93
2019-06-29T06:51:47.148Z,1015.92
2019-06-29T06:52:47.174Z,1015.96
2019-06-29T06:53:47.195Z,1015.93
2019-06-29T06:54:47.223Z,1016.00
2019-06-29T06:55:47.249Z,1016.00
2019-06-29T06:56:47.273Z,1016.00
2019-06-29T06:57:49.775Z,1016.02
2019-06-29T06:58:47.329Z,1016.03
2019-06-29T06:59:47.358Z,1015.96
2019-06-29T07:00:48.395Z,1015.99
2019-06-29T07:01:47.408Z,1015.98
2019-06-29T07:02:47.434Z,1015.94
2019-06-29T07:03:47.465Z,1015.89
2019-06-29T07:04:47.537Z,1015.93
2019-06-29T07:05:47.519Z,1015.87
2019-06-29T07:06:47.538Z,1015.88
2019-06-29T07:07:47.573Z,1015.84
2019-06-29T07:08:47.594Z,1015.86
2019-06-29T07:09:47.618Z,1015.85
2019-06-29T07:10:47.654Z,1015.89
2019-06-29T07:11:47.677Z,1015.88
2019-06-29T07:12:47.707Z,1015.91
2019-06-29T07:13:47.732Z,1015.92
2019-06-29T07:14:47.762Z,1015.87
2019-06-29T07:15:47.786Z,1015.87
2019-06-29T07:16:47.809Z,1015.86
2019-06-29T07:17:47.843Z,1015.86
2019-06-29T07:18:47.870Z,1015.85
2019-06-29T07:19:47.889Z,1015.82
2019-06-29T07:20:47.918Z,1015.81
2019-06-29T07:21:47.951Z,1015.80
2019-06-29T07:22:47.969Z,1015.81
2019-06-29T07:23:48.026Z,1015.84
2019-06-29T07:24:48.025Z,1015.85
2019-06-29T07:25:48.053Z,1015.84
2019-06-29T07:26:48.077Z,1015.84
2019-06-29T07:27:48.108Z,1015.82
2019-06-29T07:28:48.133Z,1015.77
2019-06-29T07:29:48.161Z,1015.81
2019-06-29T07:30:48.189Z,1015.78
2019-06-29T07:31:48.223Z,1015.77
2019-06-29T07:32:48.241Z,1015.73
2019-06-29T07:33:48.277Z,1015.74
2019-06-29T07:34:48.319Z,1015.72
2019-06-29T07:35:48.323Z,1015.72
2019-06-29T07:36:48.360Z,1015.70
2019-06-29T07:37:48.380Z,1015.70
2019-06-29T07:39:02.561Z,1015.72
2019-06-29T07:39:48.432Z,1015.74
2019-06-29T07:40:48.463Z,1015.71
2019-06-29T07:41:48.490Z,1015.70
2019-06-29T07:42:48.525Z,1015.73
2019-06-29T07:43:48.561Z,1015.72
2019-06-29T07:44:48.570Z,1015.70
2019-06-29T07:45:48.604Z,1015.70
2019-06-29T07:46:48.626Z,1015.75
2019-06-29T07:47:48.658Z,1015.74
2019-06-29T07:48:48.690Z,1015.73
2019-06-29T07:49:48.717Z,1015.71
2019-06-29T07:50:53.882Z,1015.72
2019-06-29T07:51:48.763Z,1015.71
2019-06-29T07:52:48.789Z,1015.73
2019-06-29T07:53:49.002Z,1015.74
2019-06-29T07:54:48.850Z,1015.69
2019-06-29T07:55:48.874Z,1015.68
2019-06-29T07:56:48.896Z,1015.66
2019-06-29T07:57:48.927Z,1015.66
2019-06-29T07:58:48.953Z,1015.64
2019-06-29T07:59:48.987Z,1015.64
2019-06-29T08:00:49.006Z,1015.62
2019-06-29T08:01:49.032Z,1015.65
2019-06-29T08:02:49.064Z,1015.64
2019-06-29T08:03:49.086Z,1015.58
2019-06-29T08:04:49.120Z,1015.60
2019-06-29T08:05:49.140Z,1015.58
2019-06-29T08:06:49.170Z,1015.55
2019-06-29T08:07:49.194Z,1015.53
2019-06-29T08:08:49.235Z,1015.58
2019-06-29T08:09:49.250Z,1015.54
2019-06-29T08:10:49.277Z,1015.51
2019-06-29T08:11:49.313Z,1015.53
2019-06-29T08:12:49.337Z,1015.51
2019-06-29T08:13:49.363Z,1015.55
2019-06-29T08:14:49.384Z,1015.51
2019-06-29T08:15:49.408Z,1015.52
2019-06-29T08:16:49.436Z,1015.52
2019-06-29T08:17:49.466Z,1015.52
2019-06-29T08:18:49.494Z,1015.55
2019-06-29T08:19:49.517Z,1015.50
2019-06-29T08:20:49.544Z,1015.50
2019-06-29T08:21:49.572Z,1015.50
2019-06-29T08:22:49.603Z,1015.48
2019-06-29T08:23:49.632Z,1015.53
2019-06-29T08:24:49.656Z,1015.47
2019-06-29T08:25:49.676Z,1015.46
2019-06-29T08:26:49.709Z,1015.48
2019-06-29T08:27:49.742Z,1015.44
2019-06-29T08:28:49.769Z,1015.47
2019-06-29T08:29:49.792Z,1015.47
2019-06-29T08:30:49.812Z,1015.47
2019-06-29T08:31:49.845Z,1015.43
2019-06-29T08:32:55.896Z,1015.49
2019-06-29T08:33:49.898Z,1015.52
2019-06-29T08:34:49.926Z,1015.52
2019-06-29T08:35:49.944Z,1015.52
2019-06-29T08:36:49.971Z,1015.52
2019-06-29T08:37:50.005Z,1015.53
2019-06-29T08:38:50.037Z,1015.50
2019-06-29T08:39:50.050Z,1015.50
2019-06-29T08:40:50.079Z,1015.49
2019-06-29T08:41:50.105Z,1015.50
2019-06-29T08:42:50.131Z,1015.42
2019-06-29T08:43:50.164Z,1015.45
2019-06-29T08:44:50.191Z,1015.44
2019-06-29T08:45:50.211Z,1015.41
2019-06-29T08:46:50.240Z,1015.42
2019-06-29T08:47:50.268Z,1015.45
2019-06-29T08:48:50.291Z,1015.41
2019-06-29T08:49:50.322Z,1015.41
2019-06-29T08:50:50.351Z,1015.38
2019-06-29T08:52:04.598Z,1015.38
2019-06-29T08:52:50.407Z,1015.37
2019-06-29T08:53:50.423Z,1015.41
2019-06-29T08:54:50.461Z,1015.37
2019-06-29T08:55:50.486Z,1015.43
2019-06-29T08:56:50.509Z,1015.39
2019-06-29T08:57:50.536Z,1015.37
2019-06-29T08:58:54.360Z,1015.40
2019-06-29T08:59:50.587Z,1015.37
2019-06-29T09:00:50.620Z,1015.41
2019-06-29T09:01:50.638Z,1015.38
2019-06-29T09:02:50.668Z,1015.36
2019-06-29T09:03:50.695Z,1015.34
2019-06-29T09:04:51.033Z,1015.34
2019-06-29T09:05:50.746Z,1015.35
2019-06-29T09:06:50.788Z,1015.31
2019-06-29T09:07:50.806Z,1015.30
2019-06-29T09:08:50.827Z,1015.26
2019-06-29T09:09:50.855Z,1015.27
2019-06-29T09:10:50.888Z,1015.28
2019-06-29T09:11:50.910Z,1015.24
2019-06-29T09:12:50.946Z,1015.29
2019-06-29T09:13:50.971Z,1015.20
2019-06-29T09:14:50.988Z,1015.23
2019-06-29T09:15:51.014Z,1015.21
2019-06-29T09:16:51.045Z,1015.16
2019-06-29T09:17:51.070Z,1015.18
2019-06-29T09:18:51.108Z,1015.18
2019-06-29T09:19:51.124Z,1015.16
2019-06-29T09:20:51.154Z,1015.20
2019-06-29T09:21:51.177Z,1015.21
2019-06-29T09:22:51.208Z,1015.18
2019-06-29T09:23:51.231Z,1015.19
2019-06-29T09:24:51.261Z,1015.15
2019-06-29T09:25:51.293Z,1015.16
2019-06-29T09:26:51.315Z,1015.15
2019-06-29T09:27:51.798Z,1015.12
2019-06-29T09:28:51.758Z,1015.12
2019-06-29T09:29:51.922Z,1015.16
2019-06-29T09:30:51.961Z,1015.08
2019-06-29T09:31:54.464Z,1015.10
2019-06-29T09:32:52.712Z,1015.08
2019-06-29T09:33:51.928Z,1015.05
2019-06-29T09:34:52.184Z,1015.05
2019-06-29T09:35:52.723Z,1015.07
2019-06-29T09:36:52.119Z,1015.10
2019-06-29T09:37:51.728Z,1015.08
2019-06-29T09:38:52.426Z,1015.07
2019-06-29T09:39:52.000Z,1015.06
2019-06-29T09:40:51.771Z,1015.06
2019-06-29T09:41:51.859Z,1015.08
2019-06-29T09:42:51.992Z,1015.07
2019-06-29T09:43:52.137Z,1015.03
2019-06-29T09:44:52.325Z,1015.06
2019-06-29T09:45:52.161Z,1015.06
2019-06-29T09:46:52.298Z,1015.07
2019-06-29T09:47:51.889Z,1015.03
2019-06-29T09:48:52.475Z,1015.01
2019-06-29T09:49:52.513Z,1015.00
2019-06-29T09:50:52.531Z,1014.98
2019-06-29T09:51:52.146Z,1014.98
2019-06-29T09:52:52.028Z,1014.96
2019-06-29T09:53:52.051Z,1014.94
2019-06-29T09:54:52.484Z,1014.94
2019-06-29T09:55:53.011Z,1014.93
2019-06-29T09:56:53.155Z,1014.94
2019-06-29T09:57:52.163Z,1014.92
2019-06-29T09:58:52.245Z,1014.91
2019-06-29T09:59:52.213Z,1014.94
2019-06-29T10:00:52.421Z,1014.90
2019-06-29T10:01:52.550Z,1014.92
2019-06-29T10:02:54.429Z,1014.90
2019-06-29T10:03:52.361Z,1014.89
2019-06-29T10:04:52.351Z,1014.80
2019-06-29T10:05:52.979Z,1014.83
2019-06-29T10:06:52.410Z,1014.83
2019-06-29T10:07:52.540Z,1014.82
2019-06-29T10:08:52.459Z,1014.81
2019-06-29T10:09:52.494Z,1014.80
2019-06-29T10:10:52.525Z,1014.77
2019-06-29T10:11:52.657Z,1014.80
2019-06-29T10:12:53.025Z,1014.79
2019-06-29T10:13:52.599Z,1014.77
2019-06-29T10:14:52.633Z,1014.77
2019-06-29T10:15:52.660Z,1014.77
2019-06-29T10:16:52.987Z,1014.74
2019-06-29T10:17:52.709Z,1014.77
2019-06-29T10:18:52.744Z,1014.74
2019-06-29T10:19:52.767Z,1014.72
2019-06-29T10:20:52.798Z,1014.79
2019-06-29T10:21:52.941Z,1014.74
2019-06-29T10:22:52.849Z,1014.77
2019-06-29T10:23:52.873Z,1014.75
2019-06-29T10:24:54.932Z,1014.71
2019-06-29T10:25:53.395Z,1014.74
2019-06-29T10:26:52.959Z,1014.71
2019-06-29T10:27:54.664Z,1014.69
2019-06-29T10:28:53.021Z,1014.70
2019-06-29T10:29:57.807Z,1014.69
2019-06-29T10:30:55.472Z,1014.66
2019-06-29T10:31:53.101Z,1014.67
2019-06-29T10:32:53.137Z,1014.69
2019-06-29T10:33:53.327Z,1014.67
2019-06-29T10:34:53.186Z,1014.67
2019-06-29T10:35:53.222Z,1014.61
2019-06-29T10:36:53.244Z,1014.62
2019-06-29T10:37:53.267Z,1014.67
2019-06-29T10:38:53.295Z,1014.63
2019-06-29T10:39:53.318Z,1014.60
2019-06-29T10:40:53.347Z,1014.55
2019-06-29T10:41:53.628Z,1014.55
2019-06-29T10:42:53.411Z,1014.54
2019-06-29T10:43:53.434Z,1014.55
2019-06-29T10:44:54.215Z,1014.54
2019-06-29T10:45:53.488Z,1014.52
2019-06-29T10:46:53.516Z,1014.52
2019-06-29T10:47:53.541Z,1014.56
2019-06-29T10:48:53.570Z,1014.53
2019-06-29T10:49:53.600Z,1014.48
2019-06-29T10:50:53.632Z,1014.45
2019-06-29T10:51:53.659Z,1014.45
2019-06-29T10:52:53.680Z,1014.48
2019-06-29T10:53:53.709Z,1014.46
2019-06-29T10:54:54.015Z,1014.46
2019-06-29T10:55:53.765Z,1014.49
2019-06-29T10:56:53.795Z,1014.45
2019-06-29T10:57:53.823Z,1014.43
2019-06-29T10:58:54.477Z,1014.42
2019-06-29T11:00:06.917Z,1014.43
2019-06-29T11:00:53.910Z,1014.45
2019-06-29T11:01:53.942Z,1014.42
2019-06-29T11:02:53.964Z,1014.40
2019-06-29T11:03:53.989Z,1014.39
2019-06-29T11:04:54.020Z,1014.38
2019-06-29T11:05:54.055Z,1014.37
2019-06-29T11:06:54.078Z,1014.41
2019-06-29T11:07:54.110Z,1014.39
2019-06-29T11:08:54.131Z,1014.40
2019-06-29T11:09:54.160Z,1014.41
2019-06-29T11:10:54.191Z,1014.39
2019-06-29T11:11:59.551Z,1014.37
2019-06-29T11:12:54.255Z,1014.34
2019-06-29T11:13:54.307Z,1014.36
2019-06-29T11:14:54.309Z,1014.35
2019-06-29T11:15:54.332Z,1014.32
2019-06-29T11:16:54.364Z,1014.31
2019-06-29T11:17:54.409Z,1014.29
2019-06-29T11:18:54.422Z,1014.29
2019-06-29T11:19:54.833Z,1014.27
2019-06-29T11:20:54.471Z,1014.25
2019-06-29T11:21:54.511Z,1014.26
2019-06-29T11:22:54.531Z,1014.20
2019-06-29T11:23:54.555Z,1014.20
2019-06-29T11:24:54.590Z,1014.19
2019-06-29T11:25:54.613Z,1014.22
2019-06-29T11:26:58.542Z,1014.16
2019-06-29T11:28:15.137Z,1014.16
2019-06-29T11:28:54.706Z,1014.19
2019-06-29T11:29:54.728Z,1014.09
2019-06-29T11:30:54.756Z,1014.09
2019-06-29T11:31:54.783Z,1014.07
2019-06-29T11:32:54.821Z,1014.04
2019-06-29T11:33:54.851Z,1014.02
2019-06-29T11:34:54.876Z,1014.01
2019-06-29T11:35:55.585Z,1013.97
2019-06-29T11:36:54.925Z,1013.99
2019-06-29T11:37:54.953Z,1013.98
2019-06-29T11:38:54.986Z,1013.97
2019-06-29T11:39:55.018Z,1013.96
2019-06-29T11:40:55.040Z,1013.94
2019-06-29T11:41:55.671Z,1013.97
2019-06-29T11:42:55.095Z,1013.94
2019-06-29T11:43:55.130Z,1013.94
2019-06-29T11:44:55.152Z,1013.93
2019-06-29T11:45:55.183Z,1013.89
2019-06-29T11:46:55.213Z,1013.91
2019-06-29T11:47:58.582Z,1013.89
2019-06-29T11:48:55.274Z,1013.91
2019-06-29T11:50:03.530Z,1013.88
2019-06-29T11:50:55.329Z,1013.83
2019-06-29T11:51:55.814Z,1013.80
2019-06-29T11:52:55.380Z,1013.83
2019-06-29T11:53:55.415Z,1013.84
2019-06-29T11:54:55.437Z,1013.79
2019-06-29T11:55:55.468Z,1013.78
2019-06-29T11:56:55.494Z,1013.80
2019-06-29T11:57:55.523Z,1013.79
2019-06-29T11:58:55.552Z,1013.79
2019-06-29T11:59:55.588Z,1013.77
2019-06-29T12:00:55.610Z,1013.74
2019-06-29T12:01:55.646Z,1013.68
2019-06-29T12:02:55.667Z,1013.72
2019-06-29T12:03:55.846Z,1013.65
2019-06-29T12:04:55.723Z,1013.62
2019-06-29T12:05:55.758Z,1013.64